Historique des mesures à Cassis (13260), France
Quotidien Résumé Juin 7, 2017 Unités:  Métrique    US   Métrique/US
« Précédent (Jour)
Suivant (Jour) »
Quotidien Hebdomadaire Mensuel Annuel Période au choix
  Maximum: Minimum: Moyenne:
Température: TemperatureC °C 16.4 °C 19.2 °C
Point de rosée: DewpointC °C 4.9 °C 5.7 °C
Humidité: Humidity % 31 % 39 %
Vitesse du vent: 0 km/h 6.4 km/h 25.1 km/h
Rafales: 0 km/h - -
Vent:- - SSE
Pression: PressurehPa hPa 1010.7 hPa -
Précipitations: 0.0 mm    
Historical Graphs
 
 
Mesures pour : Juin 7, 2017
Heure Temperature Point de rosée Pression Vent Vitesse du vent Rafales Humidité Pluie (par heure) Conditions
TemperatureC °C DewpointC °C PressurehPa hPa Calm     Humidity % HourlyPrecipMM mm SoftwareType W/m2
00:10 19.9 °C 6.9 °C 1010.7 hPa NNE 24.8 km/h 52.8 km/h 43 % 0.0 mm open2300-1.11 W/m2
01:10 19.2 °C 6.6 °C 1011.4 hPa North 34.1 km/h 34.1 km/h 44 % 0.0 mm open2300-1.11 W/m2
02:10 18.4 °C 6.2 °C 1011.4 hPa NNW 13.2 km/h 22 km/h 45 % 0.0 mm open2300-1.11 W/m2
03:10 17.7 °C 6.8 °C 1012.1 hPa NNE 23.8 km/h 23.8 km/h 49 % 0.0 mm open2300-1.11 W/m2
04:10 17.2 °C 6.4 °C 1012.4 hPa NNE 26.2 km/h 59.1 km/h 49 % 0.0 mm open2300-1.11 W/m2
05:10 16.8 °C 6.6 °C 1012.4 hPa NW 21.6 km/h 29.5 km/h 51 % 0.0 mm open2300-1.11 W/m2
06:10 16.4 °C 6.5 °C 1013.1 hPa West 26.7 km/h 38.3 km/h 52 % 0.0 mm open2300-1.11 W/m2
07:10 16.5 °C 7.1 °C 1013.8 hPa WSW 15 km/h 20.9 km/h 54 % 0.0 mm open2300-1.11 W/m2
08:10 17.6 °C 7.1 °C 1013.8 hPa North 22.5 km/h 63.2 km/h 50 % 0.0 mm open2300-1.11 W/m2
09:10 17.6 °C 6.4 °C 1014.1 hPa North 16.9 km/h 45.9 km/h 48 % 0.0 mm open2300-1.11 W/m2
10:10 19.8 °C 6.2 °C 1014.4 hPa NNE 15.6 km/h 29.5 km/h 41 % 0.0 mm open2300-1.11 W/m2
11:10 21.3 °C 5.9 °C 1014.4 hPa North 35.2 km/h 58.6 km/h 37 % 0.0 mm open2300-1.11 W/m2
12:10 21.6 °C 6.2 °C 1014.1 hPa NW 22 km/h 42.6 km/h 37 % 0.0 mm open2300-1.11 W/m2
14:10 22.6 °C 5.4 °C 1013.8 hPa WNW 54.4 km/h 54.4 km/h 33 % 0.0 mm open2300-1.11 W/m2
15:10 22.7 °C 5.1 °C 1013.1 hPa NW 43.5 km/h 60.8 km/h 32 % 0.0 mm open2300-1.11 W/m2
16:10 23.0 °C 4.9 °C 1012.8 hPa NNW 21.6 km/h 27.7 km/h 31 % 0.0 mm open2300-1.11 W/m2
17:10 23.6 °C 5.4 °C 1012.8 hPa NW 51 km/h 51 km/h 31 % 0.0 mm open2300-1.11 W/m2
18:11 23.0 °C 4.9 °C 1012.1 hPa NNE 21.6 km/h 43.5 km/h 31 % 0.0 mm open2300-1.11 W/m2
19:10 22.6 °C 5.0 °C 1011.7 hPa North 27.7 km/h 34.8 km/h 32 % 0.0 mm open2300-1.11 W/m2
20:10 22.1 °C 5.0 °C 1012.1 hPa NNW 26.2 km/h 51.5 km/h 33 % 0.0 mm open2300-1.11 W/m2
21:11 21.2 °C 5.0 °C 1013.1 hPa NNW 6.4 km/h 13.2 km/h 35 % 0.0 mm open2300-1.11 W/m2
22:10 20.3 °C 5.1 °C 1013.4 hPa NNE 24.8 km/h 27.2 km/h 37 % 0.0 mm open2300-1.11 W/m2
23:10 19.5 °C 5.1 °C 1013.4 hPa NW 26.7 km/h 43.5 km/h 39 % 0.0 mm open2300-1.11 W/m2
Observations météo à CASSIS
WU-History script by Weather Underground - 1 mb